sensor_id;sensor_type;location;lat;lon;timestamp;P1;durP1;ratioP1;P2;durP2;ratioP2
2680;SDS011;1350;42.134;24.708;2023-05-07T00:02:13;12.45;;;9.15;;
2680;SDS011;1350;42.134;24.708;2023-05-07T00:04:40;15.30;;;9.17;;
2680;SDS011;1350;42.134;24.708;2023-05-07T00:07:08;17.38;;;9.85;;
2680;SDS011;1350;42.134;24.708;2023-05-07T00:09:35;19.15;;;9.93;;
2680;SDS011;1350;42.134;24.708;2023-05-07T00:12:02;15.73;;;11.52;;
2680;SDS011;1350;42.134;24.708;2023-05-07T00:14:29;16.80;;;10.27;;
2680;SDS011;1350;42.134;24.708;2023-05-07T00:16:56;15.95;;;11.10;;
2680;SDS011;1350;42.134;24.708;2023-05-07T00:19:23;13.70;;;10.77;;
2680;SDS011;1350;42.134;24.708;2023-05-07T00:21:50;14.38;;;10.55;;
2680;SDS011;1350;42.134;24.708;2023-05-07T00:24:20;19.73;;;11.65;;
2680;SDS011;1350;42.134;24.708;2023-05-07T00:26:46;12.18;;;9.55;;
2680;SDS011;1350;42.134;24.708;2023-05-07T00:29:13;13.17;;;10.73;;
2680;SDS011;1350;42.134;24.708;2023-05-07T00:31:40;17.08;;;11.02;;
2680;SDS011;1350;42.134;24.708;2023-05-07T00:34:06;13.85;;;9.48;;
2680;SDS011;1350;42.134;24.708;2023-05-07T00:36:33;10.13;;;9.02;;
2680;SDS011;1350;42.134;24.708;2023-05-07T00:39:00;10.95;;;9.02;;
2680;SDS011;1350;42.134;24.708;2023-05-07T00:41:29;12.48;;;10.50;;
2680;SDS011;1350;42.134;24.708;2023-05-07T00:43:56;11.18;;;9.00;;
2680;SDS011;1350;42.134;24.708;2023-05-07T00:46:23;12.88;;;8.70;;
2680;SDS011;1350;42.134;24.708;2023-05-07T00:48:50;13.43;;;8.98;;
2680;SDS011;1350;42.134;24.708;2023-05-07T00:51:18;9.57;;;7.72;;
2680;SDS011;1350;42.134;24.708;2023-05-07T00:53:44;14.20;;;8.98;;
2680;SDS011;1350;42.134;24.708;2023-05-07T00:56:12;11.82;;;8.73;;
2680;SDS011;1350;42.134;24.708;2023-05-07T00:58:41;12.65;;;8.88;;
2680;SDS011;1350;42.134;24.708;2023-05-07T01:01:08;13.18;;;8.90;;
2680;SDS011;1350;42.134;24.708;2023-05-07T01:03:34;12.90;;;9.35;;
2680;SDS011;1350;42.134;24.708;2023-05-07T01:06:01;15.07;;;9.25;;
2680;SDS011;1350;42.134;24.708;2023-05-07T01:08:29;11.07;;;9.02;;
2680;SDS011;1350;42.134;24.708;2023-05-07T01:10:57;14.10;;;8.05;;
2680;SDS011;1350;42.134;24.708;2023-05-07T01:13:25;11.20;;;8.18;;
2680;SDS011;1350;42.134;24.708;2023-05-07T01:15:54;13.18;;;9.45;;
2680;SDS011;1350;42.134;24.708;2023-05-07T01:18:21;12.55;;;8.75;;
2680;SDS011;1350;42.134;24.708;2023-05-07T01:20:48;18.40;;;8.52;;
2680;SDS011;1350;42.134;24.708;2023-05-07T01:23:16;13.00;;;8.88;;
2680;SDS011;1350;42.134;24.708;2023-05-07T01:25:50;12.35;;;9.02;;
2680;SDS011;1350;42.134;24.708;2023-05-07T01:28:17;10.35;;;8.18;;
2680;SDS011;1350;42.134;24.708;2023-05-07T01:30:44;12.55;;;8.75;;
2680;SDS011;1350;42.134;24.708;2023-05-07T01:33:14;10.25;;;8.18;;
2680;SDS011;1350;42.134;24.708;2023-05-07T01:35:45;10.00;;;7.60;;
2680;SDS011;1350;42.134;24.708;2023-05-07T01:38:16;9.90;;;7.43;;
2680;SDS011;1350;42.134;24.708;2023-05-07T01:40:44;12.07;;;8.87;;
2680;SDS011;1350;42.134;24.708;2023-05-07T01:43:11;9.37;;;7.33;;
2680;SDS011;1350;42.134;24.708;2023-05-07T01:45:40;12.13;;;7.70;;
2680;SDS011;1350;42.134;24.708;2023-05-07T01:48:10;15.53;;;9.13;;
2680;SDS011;1350;42.134;24.708;2023-05-07T01:50:38;11.15;;;8.63;;
2680;SDS011;1350;42.134;24.708;2023-05-07T01:53:05;12.40;;;8.43;;
2680;SDS011;1350;42.134;24.708;2023-05-07T01:55:34;11.03;;;8.23;;
2680;SDS011;1350;42.134;24.708;2023-05-07T01:58:01;12.37;;;9.80;;
2680;SDS011;1350;42.134;24.708;2023-05-07T02:00:28;13.40;;;9.57;;
2680;SDS011;1350;42.134;24.708;2023-05-07T02:02:55;11.93;;;9.00;;
2680;SDS011;1350;42.134;24.708;2023-05-07T02:05:22;12.63;;;9.47;;
2680;SDS011;1350;42.134;24.708;2023-05-07T02:07:48;11.57;;;9.90;;
2680;SDS011;1350;42.134;24.708;2023-05-07T02:10:15;10.70;;;8.68;;
2680;SDS011;1350;42.134;24.708;2023-05-07T02:12:43;11.83;;;9.00;;
2680;SDS011;1350;42.134;24.708;2023-05-07T02:15:10;10.73;;;9.17;;
2680;SDS011;1350;42.134;24.708;2023-05-07T02:17:38;11.10;;;8.70;;
2680;SDS011;1350;42.134;24.708;2023-05-07T02:20:06;13.60;;;9.07;;
2680;SDS011;1350;42.134;24.708;2023-05-07T02:22:38;11.43;;;8.38;;
2680;SDS011;1350;42.134;24.708;2023-05-07T02:25:05;17.92;;;9.82;;
2680;SDS011;1350;42.134;24.708;2023-05-07T02:27:32;11.87;;;8.40;;
2680;SDS011;1350;42.134;24.708;2023-05-07T02:30:00;12.68;;;9.35;;
2680;SDS011;1350;42.134;24.708;2023-05-07T02:32:26;11.90;;;8.37;;
2680;SDS011;1350;42.134;24.708;2023-05-07T02:34:53;12.00;;;9.63;;
2680;SDS011;1350;42.134;24.708;2023-05-07T02:37:20;11.87;;;9.03;;
2680;SDS011;1350;42.134;24.708;2023-05-07T02:39:46;11.67;;;9.57;;
2680;SDS011;1350;42.134;24.708;2023-05-07T02:42:13;13.87;;;9.80;;
2680;SDS011;1350;42.134;24.708;2023-05-07T02:44:40;12.25;;;9.95;;
2680;SDS011;1350;42.134;24.708;2023-05-07T02:47:08;17.05;;;10.10;;
2680;SDS011;1350;42.134;24.708;2023-05-07T02:49:35;12.23;;;9.67;;
2680;SDS011;1350;42.134;24.708;2023-05-07T02:52:02;12.32;;;10.18;;
2680;SDS011;1350;42.134;24.708;2023-05-07T02:54:29;15.30;;;11.80;;
2680;SDS011;1350;42.134;24.708;2023-05-07T02:56:56;19.65;;;10.18;;
2680;SDS011;1350;42.134;24.708;2023-05-07T02:59:23;13.45;;;10.32;;
2680;SDS011;1350;42.134;24.708;2023-05-07T03:01:51;12.73;;;10.30;;
2680;SDS011;1350;42.134;24.708;2023-05-07T03:04:19;17.23;;;13.30;;
2680;SDS011;1350;42.134;24.708;2023-05-07T03:06:45;15.55;;;12.20;;
2680;SDS011;1350;42.134;24.708;2023-05-07T03:09:12;14.43;;;12.43;;
2680;SDS011;1350;42.134;24.708;2023-05-07T03:11:39;15.40;;;13.65;;
2680;SDS011;1350;42.134;24.708;2023-05-07T03:14:06;14.07;;;12.57;;
2680;SDS011;1350;42.134;24.708;2023-05-07T03:16:33;16.38;;;12.82;;
2680;SDS011;1350;42.134;24.708;2023-05-07T03:18:59;16.42;;;13.75;;
2680;SDS011;1350;42.134;24.708;2023-05-07T03:21:27;19.98;;;13.50;;
2680;SDS011;1350;42.134;24.708;2023-05-07T03:23:54;18.25;;;13.45;;
2680;SDS011;1350;42.134;24.708;2023-05-07T03:26:21;15.73;;;12.85;;
2680;SDS011;1350;42.134;24.708;2023-05-07T03:28:48;19.00;;;13.98;;
2680;SDS011;1350;42.134;24.708;2023-05-07T03:31:15;20.10;;;13.65;;
2680;SDS011;1350;42.134;24.708;2023-05-07T03:33:49;19.38;;;14.20;;
2680;SDS011;1350;42.134;24.708;2023-05-07T03:36:17;15.98;;;12.98;;
2680;SDS011;1350;42.134;24.708;2023-05-07T03:38:45;18.30;;;13.75;;
2680;SDS011;1350;42.134;24.708;2023-05-07T03:41:11;14.93;;;13.13;;
2680;SDS011;1350;42.134;24.708;2023-05-07T03:43:38;17.27;;;12.90;;
2680;SDS011;1350;42.134;24.708;2023-05-07T03:46:05;17.65;;;13.70;;
2680;SDS011;1350;42.134;24.708;2023-05-07T03:48:32;19.00;;;13.40;;
2680;SDS011;1350;42.134;24.708;2023-05-07T03:50:59;18.25;;;13.52;;
2680;SDS011;1350;42.134;24.708;2023-05-07T03:53:25;18.50;;;15.20;;
2680;SDS011;1350;42.134;24.708;2023-05-07T03:55:53;17.13;;;13.68;;
2680;SDS011;1350;42.134;24.708;2023-05-07T03:58:20;20.20;;;13.07;;
2680;SDS011;1350;42.134;24.708;2023-05-07T04:00:47;18.35;;;12.70;;
2680;SDS011;1350;42.134;24.708;2023-05-07T04:03:14;14.70;;;12.73;;
2680;SDS011;1350;42.134;24.708;2023-05-07T04:05:40;16.20;;;11.60;;
2680;SDS011;1350;42.134;24.708;2023-05-07T04:08:07;15.70;;;12.10;;
2680;SDS011;1350;42.134;24.708;2023-05-07T04:10:34;13.97;;;11.53;;
2680;SDS011;1350;42.134;24.708;2023-05-07T04:13:02;14.00;;;10.87;;
2680;SDS011;1350;42.134;24.708;2023-05-07T04:15:28;11.50;;;9.77;;
2680;SDS011;1350;42.134;24.708;2023-05-07T04:17:55;12.20;;;10.03;;
2680;SDS011;1350;42.134;24.708;2023-05-07T04:20:22;12.50;;;10.20;;
2680;SDS011;1350;42.134;24.708;2023-05-07T04:22:49;13.83;;;10.00;;
2680;SDS011;1350;42.134;24.708;2023-05-07T04:25:16;10.67;;;9.17;;
2680;SDS011;1350;42.134;24.708;2023-05-07T04:27:43;13.53;;;10.73;;
2680;SDS011;1350;42.134;24.708;2023-05-07T04:30:12;17.83;;;10.80;;
2680;SDS011;1350;42.134;24.708;2023-05-07T04:32:39;11.93;;;9.57;;
2680;SDS011;1350;42.134;24.708;2023-05-07T04:35:06;14.00;;;10.00;;
2680;SDS011;1350;42.134;24.708;2023-05-07T04:37:33;12.20;;;8.90;;
2680;SDS011;1350;42.134;24.708;2023-05-07T04:40:00;12.37;;;9.80;;
2680;SDS011;1350;42.134;24.708;2023-05-07T04:42:28;12.23;;;9.77;;
2680;SDS011;1350;42.134;24.708;2023-05-07T04:44:55;11.53;;;9.20;;
2680;SDS011;1350;42.134;24.708;2023-05-07T04:47:23;11.03;;;8.80;;
2680;SDS011;1350;42.134;24.708;2023-05-07T04:49:49;10.40;;;8.50;;
2680;SDS011;1350;42.134;24.708;2023-05-07T04:52:16;13.50;;;9.33;;
2680;SDS011;1350;42.134;24.708;2023-05-07T04:54:43;13.53;;;10.50;;
2680;SDS011;1350;42.134;24.708;2023-05-07T04:57:09;10.70;;;8.73;;
2680;SDS011;1350;42.134;24.708;2023-05-07T04:59:36;13.30;;;8.73;;
2680;SDS011;1350;42.134;24.708;2023-05-07T05:02:03;10.83;;;9.73;;
2680;SDS011;1350;42.134;24.708;2023-05-07T05:04:31;10.57;;;8.90;;
2680;SDS011;1350;42.134;24.708;2023-05-07T05:06:58;11.53;;;9.40;;
2680;SDS011;1350;42.134;24.708;2023-05-07T05:09:25;17.70;;;9.53;;
2680;SDS011;1350;42.134;24.708;2023-05-07T05:11:51;11.23;;;8.17;;
2680;SDS011;1350;42.134;24.708;2023-05-07T05:14:18;12.80;;;9.20;;
2680;SDS011;1350;42.134;24.708;2023-05-07T05:16:45;11.57;;;8.37;;
2680;SDS011;1350;42.134;24.708;2023-05-07T05:19:12;10.23;;;8.40;;
2680;SDS011;1350;42.134;24.708;2023-05-07T05:21:40;12.23;;;8.60;;
2680;SDS011;1350;42.134;24.708;2023-05-07T05:24:06;10.03;;;8.07;;
2680;SDS011;1350;42.134;24.708;2023-05-07T05:26:33;14.30;;;9.00;;
2680;SDS011;1350;42.134;24.708;2023-05-07T05:29:00;14.37;;;8.33;;
2680;SDS011;1350;42.134;24.708;2023-05-07T05:31:27;12.20;;;8.20;;
2680;SDS011;1350;42.134;24.708;2023-05-07T05:33:54;13.90;;;8.50;;
2680;SDS011;1350;42.134;24.708;2023-05-07T05:36:20;11.57;;;8.60;;
2680;SDS011;1350;42.134;24.708;2023-05-07T05:38:48;12.83;;;8.17;;
2680;SDS011;1350;42.134;24.708;2023-05-07T05:41:15;12.53;;;8.57;;
2680;SDS011;1350;42.134;24.708;2023-05-07T05:43:42;12.57;;;7.90;;
2680;SDS011;1350;42.134;24.708;2023-05-07T05:46:08;12.47;;;10.00;;
2680;SDS011;1350;42.134;24.708;2023-05-07T05:48:36;16.17;;;9.83;;
2680;SDS011;1350;42.134;24.708;2023-05-07T05:51:03;11.50;;;8.73;;
2680;SDS011;1350;42.134;24.708;2023-05-07T05:53:30;10.50;;;7.77;;
2680;SDS011;1350;42.134;24.708;2023-05-07T05:55:58;14.70;;;8.50;;
2680;SDS011;1350;42.134;24.708;2023-05-07T05:58:25;13.63;;;9.33;;
2680;SDS011;1350;42.134;24.708;2023-05-07T06:00:52;12.20;;;7.77;;
2680;SDS011;1350;42.134;24.708;2023-05-07T06:03:19;12.80;;;8.43;;
2680;SDS011;1350;42.134;24.708;2023-05-07T06:05:45;9.40;;;7.03;;
2680;SDS011;1350;42.134;24.708;2023-05-07T06:08:12;12.10;;;7.70;;
2680;SDS011;1350;42.134;24.708;2023-05-07T06:10:39;11.73;;;7.50;;
2680;SDS011;1350;42.134;24.708;2023-05-07T06:13:08;10.40;;;7.60;;
2680;SDS011;1350;42.134;24.708;2023-05-07T06:15:34;11.90;;;8.87;;
2680;SDS011;1350;42.134;24.708;2023-05-07T06:18:01;12.50;;;7.37;;
2680;SDS011;1350;42.134;24.708;2023-05-07T06:20:28;13.47;;;9.47;;
2680;SDS011;1350;42.134;24.708;2023-05-07T06:22:54;13.30;;;8.23;;
2680;SDS011;1350;42.134;24.708;2023-05-07T06:25:21;13.77;;;8.60;;
2680;SDS011;1350;42.134;24.708;2023-05-07T06:27:48;11.63;;;7.70;;
2680;SDS011;1350;42.134;24.708;2023-05-07T06:30:16;11.73;;;7.20;;
2680;SDS011;1350;42.134;24.708;2023-05-07T06:32:43;15.93;;;10.10;;
2680;SDS011;1350;42.134;24.708;2023-05-07T06:35:09;10.77;;;8.33;;
2680;SDS011;1350;42.134;24.708;2023-05-07T06:37:36;13.67;;;7.83;;
2680;SDS011;1350;42.134;24.708;2023-05-07T06:40:05;9.93;;;6.93;;
2680;SDS011;1350;42.134;24.708;2023-05-07T06:42:33;9.87;;;6.63;;
2680;SDS011;1350;42.134;24.708;2023-05-07T06:44:59;12.03;;;7.70;;
2680;SDS011;1350;42.134;24.708;2023-05-07T06:47:27;10.53;;;6.63;;
2680;SDS011;1350;42.134;24.708;2023-05-07T06:49:54;9.70;;;7.17;;
2680;SDS011;1350;42.134;24.708;2023-05-07T06:52:21;8.90;;;6.80;;
2680;SDS011;1350;42.134;24.708;2023-05-07T06:54:48;12.03;;;8.13;;
2680;SDS011;1350;42.134;24.708;2023-05-07T06:57:14;12.73;;;7.37;;
2680;SDS011;1350;42.134;24.708;2023-05-07T06:59:41;12.50;;;7.07;;
2680;SDS011;1350;42.134;24.708;2023-05-07T07:02:08;12.23;;;7.23;;
2680;SDS011;1350;42.134;24.708;2023-05-07T07:04:36;14.40;;;7.40;;
2680;SDS011;1350;42.134;24.708;2023-05-07T07:07:03;10.30;;;7.50;;
2680;SDS011;1350;42.134;24.708;2023-05-07T07:09:29;10.83;;;7.00;;
2680;SDS011;1350;42.134;24.708;2023-05-07T07:11:56;10.70;;;6.93;;
2680;SDS011;1350;42.134;24.708;2023-05-07T07:14:23;12.37;;;7.57;;
2680;SDS011;1350;42.134;24.708;2023-05-07T07:16:49;13.00;;;8.77;;
2680;SDS011;1350;42.134;24.708;2023-05-07T07:19:16;11.40;;;8.60;;
2680;SDS011;1350;42.134;24.708;2023-05-07T07:21:44;11.43;;;7.60;;
2680;SDS011;1350;42.134;24.708;2023-05-07T07:24:11;13.20;;;8.10;;
2680;SDS011;1350;42.134;24.708;2023-05-07T07:26:44;8.57;;;6.70;;
2680;SDS011;1350;42.134;24.708;2023-05-07T07:29:10;11.30;;;7.30;;
2680;SDS011;1350;42.134;24.708;2023-05-07T07:31:37;11.10;;;8.33;;
2680;SDS011;1350;42.134;24.708;2023-05-07T07:34:05;11.17;;;7.40;;
2680;SDS011;1350;42.134;24.708;2023-05-07T07:36:32;16.33;;;8.27;;
2680;SDS011;1350;42.134;24.708;2023-05-07T07:39:00;10.20;;;7.70;;
2680;SDS011;1350;42.134;24.708;2023-05-07T07:41:26;12.63;;;7.10;;
2680;SDS011;1350;42.134;24.708;2023-05-07T07:43:53;10.00;;;7.63;;
2680;SDS011;1350;42.134;24.708;2023-05-07T07:46:20;9.90;;;7.37;;
2680;SDS011;1350;42.134;24.708;2023-05-07T07:48:46;15.07;;;8.80;;
2680;SDS011;1350;42.134;24.708;2023-05-07T07:51:13;12.07;;;8.63;;
2680;SDS011;1350;42.134;24.708;2023-05-07T07:53:40;10.53;;;8.37;;
2680;SDS011;1350;42.134;24.708;2023-05-07T07:56:08;12.07;;;9.07;;
2680;SDS011;1350;42.134;24.708;2023-05-07T07:58:35;13.50;;;8.10;;
2680;SDS011;1350;42.134;24.708;2023-05-07T08:01:03;12.40;;;8.27;;
2680;SDS011;1350;42.134;24.708;2023-05-07T08:03:30;10.00;;;7.83;;
2680;SDS011;1350;42.134;24.708;2023-05-07T08:05:58;11.30;;;8.20;;
2680;SDS011;1350;42.134;24.708;2023-05-07T08:08:25;13.03;;;7.43;;
2680;SDS011;1350;42.134;24.708;2023-05-07T08:10:51;9.60;;;7.87;;
2680;SDS011;1350;42.134;24.708;2023-05-07T08:13:19;10.70;;;7.93;;
2680;SDS011;1350;42.134;24.708;2023-05-07T08:15:46;11.57;;;9.73;;
2680;SDS011;1350;42.134;24.708;2023-05-07T08:18:13;15.73;;;10.20;;
2680;SDS011;1350;42.134;24.708;2023-05-07T08:20:40;11.97;;;8.30;;
2680;SDS011;1350;42.134;24.708;2023-05-07T08:23:07;15.30;;;8.67;;
2680;SDS011;1350;42.134;24.708;2023-05-07T08:25:34;9.30;;;7.27;;
2680;SDS011;1350;42.134;24.708;2023-05-07T08:28:01;12.40;;;7.73;;
2680;SDS011;1350;42.134;24.708;2023-05-07T08:30:29;11.17;;;7.67;;
2680;SDS011;1350;42.134;24.708;2023-05-07T08:32:56;10.60;;;6.70;;
2680;SDS011;1350;42.134;24.708;2023-05-07T08:35:23;9.60;;;6.50;;
2680;SDS011;1350;42.134;24.708;2023-05-07T08:37:50;10.40;;;6.70;;
2680;SDS011;1350;42.134;24.708;2023-05-07T08:40:17;9.53;;;5.30;;
2680;SDS011;1350;42.134;24.708;2023-05-07T08:42:44;9.27;;;6.20;;
2680;SDS011;1350;42.134;24.708;2023-05-07T08:45:12;12.70;;;6.17;;
2680;SDS011;1350;42.134;24.708;2023-05-07T08:47:42;13.30;;;7.50;;
2680;SDS011;1350;42.134;24.708;2023-05-07T08:50:11;10.10;;;6.90;;
2680;SDS011;1350;42.134;24.708;2023-05-07T08:52:38;9.97;;;6.87;;
2680;SDS011;1350;42.134;24.708;2023-05-07T08:55:05;16.40;;;7.60;;
2680;SDS011;1350;42.134;24.708;2023-05-07T08:57:35;10.60;;;7.87;;
2680;SDS011;1350;42.134;24.708;2023-05-07T09:00:02;9.80;;;6.57;;
2680;SDS011;1350;42.134;24.708;2023-05-07T09:02:29;9.87;;;6.77;;
2680;SDS011;1350;42.134;24.708;2023-05-07T09:04:57;11.03;;;6.83;;
2680;SDS011;1350;42.134;24.708;2023-05-07T09:07:24;11.07;;;6.87;;
2680;SDS011;1350;42.134;24.708;2023-05-07T09:09:51;10.33;;;5.73;;
2680;SDS011;1350;42.134;24.708;2023-05-07T09:12:20;8.30;;;4.80;;
2680;SDS011;1350;42.134;24.708;2023-05-07T09:14:47;15.70;;;6.03;;
2680;SDS011;1350;42.134;24.708;2023-05-07T09:17:15;7.77;;;5.47;;
2680;SDS011;1350;42.134;24.708;2023-05-07T09:19:42;10.40;;;6.50;;
2680;SDS011;1350;42.134;24.708;2023-05-07T09:22:11;7.60;;;5.67;;
2680;SDS011;1350;42.134;24.708;2023-05-07T09:24:38;9.80;;;5.40;;
2680;SDS011;1350;42.134;24.708;2023-05-07T09:27:05;9.50;;;5.87;;
2680;SDS011;1350;42.134;24.708;2023-05-07T09:29:33;7.53;;;5.20;;
2680;SDS011;1350;42.134;24.708;2023-05-07T09:32:00;6.20;;;3.40;;
2680;SDS011;1350;42.134;24.708;2023-05-07T09:34:27;7.90;;;4.40;;
2680;SDS011;1350;42.134;24.708;2023-05-07T09:36:55;7.27;;;4.27;;
2680;SDS011;1350;42.134;24.708;2023-05-07T09:39:24;6.97;;;4.47;;
2680;SDS011;1350;42.134;24.708;2023-05-07T09:41:51;10.20;;;4.27;;
2680;SDS011;1350;42.134;24.708;2023-05-07T09:44:20;7.40;;;4.33;;
2680;SDS011;1350;42.134;24.708;2023-05-07T09:46:49;9.93;;;4.20;;
2680;SDS011;1350;42.134;24.708;2023-05-07T09:49:23;8.83;;;4.33;;
2680;SDS011;1350;42.134;24.708;2023-05-07T09:52:01;10.67;;;4.33;;
2680;SDS011;1350;42.134;24.708;2023-05-07T09:54:35;7.33;;;4.20;;
2680;SDS011;1350;42.134;24.708;2023-05-07T09:57:10;6.83;;;4.30;;
2680;SDS011;1350;42.134;24.708;2023-05-07T09:59:37;7.27;;;4.67;;
2680;SDS011;1350;42.134;24.708;2023-05-07T10:02:04;7.83;;;4.90;;
2680;SDS011;1350;42.134;24.708;2023-05-07T10:04:31;7.90;;;4.60;;
2680;SDS011;1350;42.134;24.708;2023-05-07T10:06:58;7.17;;;4.80;;
2680;SDS011;1350;42.134;24.708;2023-05-07T10:09:26;7.77;;;4.17;;
2680;SDS011;1350;42.134;24.708;2023-05-07T10:11:54;12.77;;;4.83;;
2680;SDS011;1350;42.134;24.708;2023-05-07T10:14:21;10.83;;;4.50;;
2680;SDS011;1350;42.134;24.708;2023-05-07T10:16:48;7.10;;;4.60;;
2680;SDS011;1350;42.134;24.708;2023-05-07T10:19:15;7.70;;;4.50;;
2680;SDS011;1350;42.134;24.708;2023-05-07T10:21:44;8.63;;;5.50;;
2680;SDS011;1350;42.134;24.708;2023-05-07T10:24:16;10.27;;;4.67;;
2680;SDS011;1350;42.134;24.708;2023-05-07T10:26:48;11.37;;;5.37;;
2680;SDS011;1350;42.134;24.708;2023-05-07T10:29:21;9.10;;;5.07;;
2680;SDS011;1350;42.134;24.708;2023-05-07T10:31:58;6.70;;;4.23;;
2680;SDS011;1350;42.134;24.708;2023-05-07T10:34:33;9.80;;;5.03;;
2680;SDS011;1350;42.134;24.708;2023-05-07T10:37:02;7.17;;;4.83;;
2680;SDS011;1350;42.134;24.708;2023-05-07T10:39:30;10.33;;;5.40;;
2680;SDS011;1350;42.134;24.708;2023-05-07T10:41:57;9.00;;;4.60;;
2680;SDS011;1350;42.134;24.708;2023-05-07T10:44:35;9.73;;;4.77;;
2680;SDS011;1350;42.134;24.708;2023-05-07T10:47:06;6.83;;;4.40;;
2680;SDS011;1350;42.134;24.708;2023-05-07T10:49:34;8.30;;;4.83;;
2680;SDS011;1350;42.134;24.708;2023-05-07T10:52:14;7.27;;;5.30;;
2680;SDS011;1350;42.134;24.708;2023-05-07T10:54:42;8.97;;;5.10;;
2680;SDS011;1350;42.134;24.708;2023-05-07T11:00:03;8.13;;;5.17;;
2680;SDS011;1350;42.134;24.708;2023-05-07T11:03:09;9.47;;;5.70;;
2680;SDS011;1350;42.134;24.708;2023-05-07T11:05:36;7.70;;;4.70;;
2680;SDS011;1350;42.134;24.708;2023-05-07T11:08:04;8.00;;;4.37;;
2680;SDS011;1350;42.134;24.708;2023-05-07T11:10:50;8.63;;;4.57;;
2680;SDS011;1350;42.134;24.708;2023-05-07T11:13:18;8.20;;;4.03;;
2680;SDS011;1350;42.134;24.708;2023-05-07T11:16:17;8.67;;;3.77;;
2680;SDS011;1350;42.134;24.708;2023-05-07T11:18:48;9.50;;;5.10;;
2680;SDS011;1350;42.134;24.708;2023-05-07T11:21:31;6.53;;;4.00;;
2680;SDS011;1350;42.134;24.708;2023-05-07T11:23:58;9.57;;;4.10;;
2680;SDS011;1350;42.134;24.708;2023-05-07T11:26:27;14.03;;;10.80;;
2680;SDS011;1350;42.134;24.708;2023-05-07T11:28:56;10.03;;;6.83;;
2680;SDS011;1350;42.134;24.708;2023-05-07T11:31:27;12.80;;;4.90;;
2680;SDS011;1350;42.134;24.708;2023-05-07T11:33:55;8.80;;;5.53;;
2680;SDS011;1350;42.134;24.708;2023-05-07T11:36:22;7.93;;;4.33;;
2680;SDS011;1350;42.134;24.708;2023-05-07T11:38:50;9.10;;;4.17;;
2680;SDS011;1350;42.134;24.708;2023-05-07T11:41:16;9.63;;;4.20;;
2680;SDS011;1350;42.134;24.708;2023-05-07T11:43:57;9.97;;;3.83;;
2680;SDS011;1350;42.134;24.708;2023-05-07T11:46:27;7.40;;;4.17;;
2680;SDS011;1350;42.134;24.708;2023-05-07T11:48:56;10.77;;;4.10;;
2680;SDS011;1350;42.134;24.708;2023-05-07T11:51:23;7.33;;;3.73;;
2680;SDS011;1350;42.134;24.708;2023-05-07T11:53:52;9.60;;;5.33;;
2680;SDS011;1350;42.134;24.708;2023-05-07T11:56:19;10.83;;;5.23;;
2680;SDS011;1350;42.134;24.708;2023-05-07T11:58:46;8.37;;;4.43;;
2680;SDS011;1350;42.134;24.708;2023-05-07T12:01:14;8.37;;;4.40;;
2680;SDS011;1350;42.134;24.708;2023-05-07T12:03:45;36.43;;;33.00;;
2680;SDS011;1350;42.134;24.708;2023-05-07T12:06:12;15.47;;;11.60;;
2680;SDS011;1350;42.134;24.708;2023-05-07T12:08:41;7.00;;;4.20;;
2680;SDS011;1350;42.134;24.708;2023-05-07T12:11:09;7.37;;;4.50;;
2680;SDS011;1350;42.134;24.708;2023-05-07T12:13:38;7.20;;;4.47;;
2680;SDS011;1350;42.134;24.708;2023-05-07T12:16:05;7.40;;;4.73;;
2680;SDS011;1350;42.134;24.708;2023-05-07T12:18:34;6.37;;;3.83;;
2680;SDS011;1350;42.134;24.708;2023-05-07T12:21:03;6.60;;;4.17;;
2680;SDS011;1350;42.134;24.708;2023-05-07T12:23:32;8.37;;;4.83;;
2680;SDS011;1350;42.134;24.708;2023-05-07T12:25:59;9.63;;;4.80;;
2680;SDS011;1350;42.134;24.708;2023-05-07T12:28:27;11.37;;;4.87;;
2680;SDS011;1350;42.134;24.708;2023-05-07T12:30:53;9.10;;;5.40;;
2680;SDS011;1350;42.134;24.708;2023-05-07T12:33:23;10.53;;;4.87;;
2680;SDS011;1350;42.134;24.708;2023-05-07T12:35:52;8.20;;;4.40;;
2680;SDS011;1350;42.134;24.708;2023-05-07T12:38:23;7.10;;;4.23;;
2680;SDS011;1350;42.134;24.708;2023-05-07T12:40:50;7.40;;;4.20;;
2680;SDS011;1350;42.134;24.708;2023-05-07T12:43:21;10.83;;;4.37;;
2680;SDS011;1350;42.134;24.708;2023-05-07T12:45:51;7.57;;;4.10;;
2680;SDS011;1350;42.134;24.708;2023-05-07T12:48:20;6.93;;;4.10;;
2680;SDS011;1350;42.134;24.708;2023-05-07T12:50:48;6.67;;;4.03;;
2680;SDS011;1350;42.134;24.708;2023-05-07T12:53:15;7.63;;;4.70;;
2680;SDS011;1350;42.134;24.708;2023-05-07T12:55:44;9.30;;;4.47;;
2680;SDS011;1350;42.134;24.708;2023-05-07T12:58:15;6.80;;;4.70;;
2680;SDS011;1350;42.134;24.708;2023-05-07T13:00:43;6.67;;;4.37;;
2680;SDS011;1350;42.134;24.708;2023-05-07T13:03:10;6.77;;;4.30;;
2680;SDS011;1350;42.134;24.708;2023-05-07T13:05:37;6.83;;;4.40;;
2680;SDS011;1350;42.134;24.708;2023-05-07T13:08:05;8.83;;;4.57;;
2680;SDS011;1350;42.134;24.708;2023-05-07T13:10:34;10.33;;;5.00;;
2680;SDS011;1350;42.134;24.708;2023-05-07T13:13:02;8.70;;;5.13;;
2680;SDS011;1350;42.134;24.708;2023-05-07T13:15:29;8.10;;;5.10;;
2680;SDS011;1350;42.134;24.708;2023-05-07T13:17:56;7.33;;;4.30;;
2680;SDS011;1350;42.134;24.708;2023-05-07T13:20:23;10.10;;;5.17;;
2680;SDS011;1350;42.134;24.708;2023-05-07T13:22:49;15.30;;;4.97;;
2680;SDS011;1350;42.134;24.708;2023-05-07T13:25:16;8.80;;;5.03;;
2680;SDS011;1350;42.134;24.708;2023-05-07T13:27:43;7.77;;;5.00;;
2680;SDS011;1350;42.134;24.708;2023-05-07T13:30:11;7.30;;;3.93;;
2680;SDS011;1350;42.134;24.708;2023-05-07T13:32:38;8.50;;;4.90;;
2680;SDS011;1350;42.134;24.708;2023-05-07T13:35:05;10.20;;;4.67;;
2680;SDS011;1350;42.134;24.708;2023-05-07T13:37:33;6.23;;;3.80;;
2680;SDS011;1350;42.134;24.708;2023-05-07T13:40:00;13.30;;;4.90;;
2680;SDS011;1350;42.134;24.708;2023-05-07T13:42:31;9.67;;;4.60;;
2680;SDS011;1350;42.134;24.708;2023-05-07T13:44:58;7.50;;;3.43;;
2680;SDS011;1350;42.134;24.708;2023-05-07T13:47:27;7.63;;;4.30;;
2680;SDS011;1350;42.134;24.708;2023-05-07T13:49:53;8.73;;;4.20;;
2680;SDS011;1350;42.134;24.708;2023-05-07T13:52:20;7.97;;;4.40;;
2680;SDS011;1350;42.134;24.708;2023-05-07T13:54:47;6.10;;;3.73;;
2680;SDS011;1350;42.134;24.708;2023-05-07T13:57:13;9.47;;;4.90;;
2680;SDS011;1350;42.134;24.708;2023-05-07T13:59:40;8.90;;;4.93;;
2680;SDS011;1350;42.134;24.708;2023-05-07T14:02:07;8.87;;;4.30;;
2680;SDS011;1350;42.134;24.708;2023-05-07T14:04:36;7.87;;;4.50;;
2680;SDS011;1350;42.134;24.708;2023-05-07T14:07:06;9.80;;;4.20;;
2680;SDS011;1350;42.134;24.708;2023-05-07T14:09:33;9.80;;;3.77;;
2680;SDS011;1350;42.134;24.708;2023-05-07T14:12:02;6.17;;;3.23;;
2680;SDS011;1350;42.134;24.708;2023-05-07T14:14:29;6.63;;;3.40;;
2680;SDS011;1350;42.134;24.708;2023-05-07T14:16:56;8.80;;;3.90;;
2680;SDS011;1350;42.134;24.708;2023-05-07T14:19:23;6.83;;;3.83;;
2680;SDS011;1350;42.134;24.708;2023-05-07T14:21:51;19.27;;;4.83;;
2680;SDS011;1350;42.134;24.708;2023-05-07T14:24:18;6.23;;;3.50;;
2680;SDS011;1350;42.134;24.708;2023-05-07T14:26:44;6.90;;;3.83;;
2680;SDS011;1350;42.134;24.708;2023-05-07T14:29:11;7.57;;;3.93;;
2680;SDS011;1350;42.134;24.708;2023-05-07T14:31:38;8.43;;;3.87;;
2680;SDS011;1350;42.134;24.708;2023-05-07T14:34:05;9.00;;;4.30;;
2680;SDS011;1350;42.134;24.708;2023-05-07T14:36:32;8.60;;;4.20;;
2680;SDS011;1350;42.134;24.708;2023-05-07T14:39:00;6.90;;;3.50;;
2680;SDS011;1350;42.134;24.708;2023-05-07T14:41:27;7.87;;;3.83;;
2680;SDS011;1350;42.134;24.708;2023-05-07T14:43:54;10.20;;;3.80;;
2680;SDS011;1350;42.134;24.708;2023-05-07T14:46:21;8.53;;;4.60;;
2680;SDS011;1350;42.134;24.708;2023-05-07T14:48:49;7.43;;;3.77;;
2680;SDS011;1350;42.134;24.708;2023-05-07T14:51:15;6.70;;;3.43;;
2680;SDS011;1350;42.134;24.708;2023-05-07T14:53:42;8.83;;;3.60;;
2680;SDS011;1350;42.134;24.708;2023-05-07T14:56:10;9.50;;;3.50;;
2680;SDS011;1350;42.134;24.708;2023-05-07T14:58:37;8.17;;;3.80;;